This is the latest recevied weather packets stored in our database for station/object HG5OJG-6. If no packets are shown the sender has not sent any weather packets the latest 10 day(s).
| Time | Temp. | Humidity | Pressure | Rain* | Wind** | Luminosity | Snow |
|---|---|---|---|---|---|---|---|
| 1778109375 | 15.56° C | 82% | 1010.6 hPa | 1.02 mm | - | 0 W/m² | - |
| 1778105800 | 16.11° C | 80% | 1010 hPa | 0 mm | - | 0 W/m² | - |
| 1778103938 | 16.11° C | 79% | 1009.9 hPa | 0 mm | - | 0 W/m² | - |
| 1778102120 | 16.67° C | 79% | 1009.9 hPa | 0 mm | - | 0 W/m² | - |
| 1778099171 | 16.67° C | 77% | 1010.2 hPa | 0.51 mm | - | 0 W/m² | - |
| 1778097363 | 18.89° C | 69% | 1010.5 hPa | 0 mm | - | 0 W/m² | - |
| 1778096768 | 19.44° C | 64% | 1010.3 hPa | 0 mm | - | 0 W/m² | - |
| 1778091374 | 21.11° C | 50% | 1008.6 hPa | 0 mm | - | 1 W/m² | - |
| 1778090159 | 21.67° C | 49% | 1008.5 hPa | 0 mm | - | 5 W/m² | - |
| 1778088958 | 22.78° C | 47% | 1008.5 hPa | 0 mm | - | 17 W/m² | - |
| 1778086008 | 23.89° C | 44% | 1008.4 hPa | 0 mm | - | 58 W/m² | - |
| 1778084796 | 23.89° C | 43% | 1008.6 hPa | 0 mm | - | 86 W/m² | - |
| 1778084135 | 23.89° C | 43% | 1008.5 hPa | 0 mm | - | 81 W/m² | - |
| 1778083575 | 24.44° C | 41% | 1008.5 hPa | 0 mm | - | 92 W/m² | - |
| 1778082997 | 24.44° C | 41% | 1008.5 hPa | 0 mm | - | 162 W/m² | - |
| 1778082337 | 24.44° C | 41% | 1008.7 hPa | 0 mm | - | 169 W/m² | - |
| 1778072742 | 26.11° C | 35% | 1009.4 hPa | 0 mm | - | 587 W/m² | - |
| 1778071549 | 26.67° C | 37% | 1009.5 hPa | 0 mm | - | 587 W/m² | - |
| 1778070983 | 26.11° C | 37% | 1009.5 hPa | 0 mm | - | 663 W/m² | - |
| 1778064379 | 24.44° C | 45% | 1010.2 hPa | 0 mm | - | 828 W/m² | - |
| 1778063188 | 24.44° C | 47% | 1010.3 hPa | 0 mm | - | 513 W/m² | - |
| 1778058996 | 22.78° C | 49% | 1010.5 hPa | 0 mm | - | 467 W/m² | - |
| 1778052952 | 20° C | 56% | 1010.7 hPa | 0 mm | - | 444 W/m² | - |
| 1778051770 | 19.44° C | 57% | 1010.5 hPa | 0 mm | - | 377 W/m² | - |
| 1778051175 | 18.89° C | 58% | 1010.7 hPa | 0 mm | - | 374 W/m² | - |
* Rain latest hour (hover to see other rain measurements)
** Current wind speed in m/s (hover to see current wind gust speed)